sensor_id;sensor_type;location;lat;lon;timestamp;pressure;altitude;pressure_sealevel;temperature;humidity
73306;BME280;61530;51.158;0.880;2023-03-03T00:00:45;1022.64;;;4.5;38.2801
73306;BME280;61530;51.158;0.880;2023-03-03T00:01:50;1022.66;;;4.5625;37.7014
73306;BME280;61530;51.158;0.880;2023-03-03T00:02:53;1022.69;;;4.5625;37.6445
73306;BME280;61530;51.158;0.880;2023-03-03T00:03:58;1022.68;;;4.5625;38.416
73306;BME280;61530;51.158;0.880;2023-03-03T00:05:01;1022.64;;;4.5;37.2918
73306;BME280;61530;51.158;0.880;2023-03-03T00:06:09;1022.62;;;4.5;36.1881
73306;BME280;61530;51.158;0.880;2023-03-03T00:07:10;1022.64;;;4.5;36.2845
73306;BME280;61530;51.158;0.880;2023-03-03T00:08:13;1022.66;;;4.5625;36.0341
73306;BME280;61530;51.158;0.880;2023-03-03T00:09:17;1022.67;;;4.5625;37.1895
73306;BME280;61530;51.158;0.880;2023-03-03T00:10:22;1022.63;;;4.5;35.9999
73306;BME280;61530;51.158;0.880;2023-03-03T00:11:25;1022.65;;;4.5;36.468
73306;BME280;61530;51.158;0.880;2023-03-03T00:12:30;1022.67;;;4.5625;35.504
73306;BME280;61530;51.158;0.880;2023-03-03T00:13:41;1022.69;;;4.5625;35.1484
73306;BME280;61530;51.158;0.880;2023-03-03T00:14:37;1022.73;;;4.5625;35.5381
73306;BME280;61530;51.158;0.880;2023-03-03T00:15:41;1022.67;;;4.625;36.206
73306;BME280;61530;51.158;0.880;2023-03-03T00:16:45;1022.66;;;4.5625;36.9058
73306;BME280;61530;51.158;0.880;2023-03-03T00:17:50;1022.7;;;4.625;37.1609
73306;BME280;61530;51.158;0.880;2023-03-03T00:18:54;1022.71;;;4.625;37.4345
73306;BME280;61530;51.158;0.880;2023-03-03T00:19:57;1022.74;;;4.6875;37.292
73306;BME280;61530;51.158;0.880;2023-03-03T00:21:03;1022.71;;;4.625;36.9054
73306;BME280;61530;51.158;0.880;2023-03-03T00:22:15;1022.69;;;4.6875;37.1044
73306;BME280;61530;51.158;0.880;2023-03-03T00:23:19;1022.72;;;4.6875;36.6325
73306;BME280;61530;51.158;0.880;2023-03-03T00:24:19;1022.73;;;4.5625;36.508
73306;BME280;61530;51.158;0.880;2023-03-03T00:25:27;1022.69;;;4.75;36.7109
73306;BME280;61530;51.158;0.880;2023-03-03T00:26:24;1022.72;;;4.6875;36.4779
73306;BME280;61530;51.158;0.880;2023-03-03T00:27:29;1022.7;;;4.75;35.583
73306;BME280;61530;51.158;0.880;2023-03-03T00:28:31;1022.67;;;4.6875;35.061
73306;BME280;61530;51.158;0.880;2023-03-03T00:29:35;1022.73;;;4.6875;35.7883
73306;BME280;61530;51.158;0.880;2023-03-03T00:30:37;1022.73;;;4.6875;35.6053
73306;BME280;61530;51.158;0.880;2023-03-03T00:31:42;1022.74;;;4.6875;36.4719
73306;BME280;61530;51.158;0.880;2023-03-03T00:32:45;1022.74;;;4.6875;35.7472
73306;BME280;61530;51.158;0.880;2023-03-03T00:33:51;1022.75;;;4.5625;35.8407
73306;BME280;61530;51.158;0.880;2023-03-03T00:34:54;1022.79;;;4.6875;35.7523
73306;BME280;61530;51.158;0.880;2023-03-03T00:36:18;1022.77;;;4.6875;35.0783
73306;BME280;61530;51.158;0.880;2023-03-03T00:37:01;1022.8;;;4.6875;34.6992
73306;BME280;61530;51.158;0.880;2023-03-03T00:38:12;1022.77;;;4.6875;35.204
73306;BME280;61530;51.158;0.880;2023-03-03T00:39:19;1022.8;;;4.625;35.1085
73306;BME280;61530;51.158;0.880;2023-03-03T00:40:20;1022.79;;;4.6875;35.3401
73306;BME280;61530;51.158;0.880;2023-03-03T00:41:21;1022.84;;;4.75;35.7534
73306;BME280;61530;51.158;0.880;2023-03-03T00:42:21;1022.86;;;4.75;35.1643
73306;BME280;61530;51.158;0.880;2023-03-03T00:43:27;1022.85;;;4.8125;35.063
73306;BME280;61530;51.158;0.880;2023-03-03T00:44:39;1022.88;;;4.75;35.5187
73306;BME280;61530;51.158;0.880;2023-03-03T00:45:38;1022.88;;;4.8125;34.7913
73306;BME280;61530;51.158;0.880;2023-03-03T00:46:37;1022.88;;;4.75;34.9283
73306;BME280;61530;51.158;0.880;2023-03-03T00:47:43;1022.89;;;4.8125;34.4356
73306;BME280;61530;51.158;0.880;2023-03-03T00:48:47;1022.88;;;4.8125;34.688
73306;BME280;61530;51.158;0.880;2023-03-03T00:49:49;1022.88;;;4.75;34.9309
73306;BME280;61530;51.158;0.880;2023-03-03T00:50:55;1022.89;;;4.75;35.0668
73306;BME280;61530;51.158;0.880;2023-03-03T00:51:57;1022.89;;;4.75;35.4104
73306;BME280;61530;51.158;0.880;2023-03-03T00:53:04;1022.94;;;4.75;36.5736
73306;BME280;61530;51.158;0.880;2023-03-03T00:54:05;1022.96;;;4.75;35.1931
73306;BME280;61530;51.158;0.880;2023-03-03T00:55:10;1022.95;;;4.625;36.0608
73306;BME280;61530;51.158;0.880;2023-03-03T00:56:13;1022.94;;;4.6875;35.4219
73306;BME280;61530;51.158;0.880;2023-03-03T00:57:18;1022.97;;;4.75;36.3012
73306;BME280;61530;51.158;0.880;2023-03-03T00:58:23;1022.92;;;4.75;36.2086
73306;BME280;61530;51.158;0.880;2023-03-03T00:59:25;1022.91;;;4.625;36.2962
73306;BME280;61530;51.158;0.880;2023-03-03T01:00:29;1022.94;;;4.75;36.5565
73306;BME280;61530;51.158;0.880;2023-03-03T01:01:33;1022.92;;;4.6875;36.0919
73306;BME280;61530;51.158;0.880;2023-03-03T01:02:37;1022.9;;;4.6875;35.7512
73306;BME280;61530;51.158;0.880;2023-03-03T01:03:41;1022.88;;;4.6875;35.9695
73306;BME280;61530;51.158;0.880;2023-03-03T01:04:50;1022.89;;;4.6875;36.3402
73306;BME280;61530;51.158;0.880;2023-03-03T01:05:50;1022.87;;;4.75;35.6747
73306;BME280;61530;51.158;0.880;2023-03-03T01:06:53;1022.89;;;4.6875;35.6503
73306;BME280;61530;51.158;0.880;2023-03-03T01:07:57;1022.87;;;4.6875;36.0327
73306;BME280;61530;51.158;0.880;2023-03-03T01:09:01;1022.87;;;4.75;35.7983
73306;BME280;61530;51.158;0.880;2023-03-03T01:10:06;1022.89;;;4.625;37.229
73306;BME280;61530;51.158;0.880;2023-03-03T01:11:12;1022.86;;;4.6875;36.2656
73306;BME280;61530;51.158;0.880;2023-03-03T01:12:14;1022.92;;;4.6875;38.183
73306;BME280;61530;51.158;0.880;2023-03-03T01:13:18;1022.89;;;4.625;36.7607
73306;BME280;61530;51.158;0.880;2023-03-03T01:14:22;1022.92;;;4.625;36.4603
73306;BME280;61530;51.158;0.880;2023-03-03T01:15:25;1022.9;;;4.6875;35.3987
73306;BME280;61530;51.158;0.880;2023-03-03T01:16:29;1022.94;;;4.6875;35.7066
73306;BME280;61530;51.158;0.880;2023-03-03T01:17:33;1022.95;;;4.625;35.1468
73306;BME280;61530;51.158;0.880;2023-03-03T01:18:37;1022.95;;;4.75;34.9244
73306;BME280;61530;51.158;0.880;2023-03-03T01:19:41;1022.97;;;4.75;36.0945
73306;BME280;61530;51.158;0.880;2023-03-03T01:20:45;1023.04;;;4.6875;37.417
73306;BME280;61530;51.158;0.880;2023-03-03T01:21:49;1023.03;;;4.6875;36.3684
73306;BME280;61530;51.158;0.880;2023-03-03T01:22:53;1022.98;;;4.6875;36.7791
73306;BME280;61530;51.158;0.880;2023-03-03T01:23:57;1023.0;;;4.75;35.7015
73306;BME280;61530;51.158;0.880;2023-03-03T01:25:01;1023.01;;;4.6875;35.5932
73306;BME280;61530;51.158;0.880;2023-03-03T01:26:05;1023.0;;;4.75;35.3132
73306;BME280;61530;51.158;0.880;2023-03-03T01:27:09;1022.98;;;4.75;35.7598
73306;BME280;61530;51.158;0.880;2023-03-03T01:28:13;1023.01;;;4.75;36.1922
73306;BME280;61530;51.158;0.880;2023-03-03T01:29:17;1023.0;;;4.75;36.2379
73306;BME280;61530;51.158;0.880;2023-03-03T01:30:21;1023.0;;;4.6875;35.816
73306;BME280;61530;51.158;0.880;2023-03-03T01:31:26;1023.03;;;4.6875;36.5353
73306;BME280;61530;51.158;0.880;2023-03-03T01:32:29;1022.99;;;4.6875;35.907
73306;BME280;61530;51.158;0.880;2023-03-03T01:33:35;1023.01;;;4.75;36.7053
73306;BME280;61530;51.158;0.880;2023-03-03T01:34:37;1022.98;;;4.75;37.0357
73306;BME280;61530;51.158;0.880;2023-03-03T01:35:43;1023.0;;;4.625;37.0298
73306;BME280;61530;51.158;0.880;2023-03-03T01:36:45;1023.02;;;4.6875;36.9276
73306;BME280;61530;51.158;0.880;2023-03-03T01:37:49;1022.99;;;4.625;36.2202
73306;BME280;61530;51.158;0.880;2023-03-03T01:38:53;1023.02;;;4.625;35.9154
73306;BME280;61530;51.158;0.880;2023-03-03T01:39:57;1023.02;;;4.625;35.8573
73306;BME280;61530;51.158;0.880;2023-03-03T01:41:01;1023.03;;;4.625;37.3997
73306;BME280;61530;51.158;0.880;2023-03-03T01:42:05;1023.04;;;4.6875;37.7637
73306;BME280;61530;51.158;0.880;2023-03-03T01:43:13;1023.0;;;4.6875;36.8141
73306;BME280;61530;51.158;0.880;2023-03-03T01:44:14;1022.99;;;4.75;36.0334
73306;BME280;61530;51.158;0.880;2023-03-03T01:45:20;1023.03;;;4.75;37.1151
73306;BME280;61530;51.158;0.880;2023-03-03T01:46:40;1023.03;;;4.6875;36.3753
73306;BME280;61530;51.158;0.880;2023-03-03T01:47:27;1023.04;;;4.75;37.0752
73306;BME280;61530;51.158;0.880;2023-03-03T01:48:32;1023.05;;;4.75;37.2575
73306;BME280;61530;51.158;0.880;2023-03-03T01:49:36;1023.04;;;4.6875;37.984
73306;BME280;61530;51.158;0.880;2023-03-03T01:50:43;1023.01;;;4.5625;37.2235
73306;BME280;61530;51.158;0.880;2023-03-03T01:51:46;1023.05;;;4.6875;36.4154
73306;BME280;61530;51.158;0.880;2023-03-03T01:52:46;1023.04;;;4.6875;37.053
73306;BME280;61530;51.158;0.880;2023-03-03T01:53:51;1023.03;;;4.6875;36.6938
73306;BME280;61530;51.158;0.880;2023-03-03T01:54:56;1022.99;;;4.6875;35.7413
73306;BME280;61530;51.158;0.880;2023-03-03T01:55:57;1022.98;;;4.6875;35.4089
73306;BME280;61530;51.158;0.880;2023-03-03T01:57:04;1022.98;;;4.6875;35.702
73306;BME280;61530;51.158;0.880;2023-03-03T01:58:08;1022.97;;;4.6875;34.9219
73306;BME280;61530;51.158;0.880;2023-03-03T01:59:12;1022.99;;;4.6875;35.5074
73306;BME280;61530;51.158;0.880;2023-03-03T02:00:14;1023.01;;;4.6875;35.2497
73306;BME280;61530;51.158;0.880;2023-03-03T02:01:20;1023.02;;;4.625;34.9647
73306;BME280;61530;51.158;0.880;2023-03-03T02:02:21;1023.02;;;4.6875;35.8963
73306;BME280;61530;51.158;0.880;2023-03-03T02:03:26;1023.0;;;4.6875;36.0953
73306;BME280;61530;51.158;0.880;2023-03-03T02:04:29;1023.03;;;4.75;36.6094
73306;BME280;61530;51.158;0.880;2023-03-03T02:05:34;1023.03;;;4.6875;36.227
73306;BME280;61530;51.158;0.880;2023-03-03T02:06:40;1023.04;;;4.6875;35.8787
73306;BME280;61530;51.158;0.880;2023-03-03T02:07:41;1023.05;;;4.6875;35.3877
73306;BME280;61530;51.158;0.880;2023-03-03T02:08:51;1023.03;;;4.625;35.3132
73306;BME280;61530;51.158;0.880;2023-03-03T02:09:55;1023.04;;;4.6875;34.9881
73306;BME280;61530;51.158;0.880;2023-03-03T02:10:54;1023.08;;;4.75;35.2336
73306;BME280;61530;51.158;0.880;2023-03-03T02:12:04;1023.07;;;4.75;35.731
73306;BME280;61530;51.158;0.880;2023-03-03T02:13:01;1023.09;;;4.5625;36.2553
73306;BME280;61530;51.158;0.880;2023-03-03T02:14:05;1023.06;;;4.6875;35.2737
73306;BME280;61530;51.158;0.880;2023-03-03T02:15:18;1023.07;;;4.6875;36.2677
73306;BME280;61530;51.158;0.880;2023-03-03T02:16:14;1023.08;;;4.5625;36.7963
73306;BME280;61530;51.158;0.880;2023-03-03T02:17:17;1023.07;;;4.625;35.6839
73306;BME280;61530;51.158;0.880;2023-03-03T02:18:22;1023.08;;;4.6875;35.6102
73306;BME280;61530;51.158;0.880;2023-03-03T02:19:35;1023.06;;;4.6875;36.3062
73306;BME280;61530;51.158;0.880;2023-03-03T02:20:40;1023.07;;;4.625;36.9559
73306;BME280;61530;51.158;0.880;2023-03-03T02:21:33;1023.08;;;4.625;36.7395
73306;BME280;61530;51.158;0.880;2023-03-03T02:22:43;1023.08;;;4.6875;36.6763
73306;BME280;61530;51.158;0.880;2023-03-03T02:23:49;1023.05;;;4.6875;35.7186
73306;BME280;61530;51.158;0.880;2023-03-03T02:24:49;1023.03;;;4.6875;35.5935
73306;BME280;61530;51.158;0.880;2023-03-03T02:26:09;1022.96;;;4.75;36.3432
73306;BME280;61530;51.158;0.880;2023-03-03T02:26:54;1023.04;;;4.625;36.4502
73306;BME280;61530;51.158;0.880;2023-03-03T02:27:57;1023.02;;;4.625;37.4282
73306;BME280;61530;51.158;0.880;2023-03-03T02:29:02;1023.0;;;4.625;36.5073
73306;BME280;61530;51.158;0.880;2023-03-03T02:30:13;1023.0;;;4.625;37.0424
73306;BME280;61530;51.158;0.880;2023-03-03T02:31:12;1022.94;;;4.625;36.7745
73306;BME280;61530;51.158;0.880;2023-03-03T02:32:13;1022.99;;;4.5625;37.9791
73306;BME280;61530;51.158;0.880;2023-03-03T02:33:17;1022.95;;;4.5625;36.859
73306;BME280;61530;51.158;0.880;2023-03-03T02:34:21;1022.95;;;4.5625;35.6745
73306;BME280;61530;51.158;0.880;2023-03-03T02:35:29;1022.95;;;4.5625;36.0788
73306;BME280;61530;51.158;0.880;2023-03-03T02:36:31;1022.92;;;4.5625;36.2509
73306;BME280;61530;51.158;0.880;2023-03-03T02:37:33;1022.92;;;4.5;35.6853
73306;BME280;61530;51.158;0.880;2023-03-03T02:38:42;1022.92;;;4.5625;35.0938
73306;BME280;61530;51.158;0.880;2023-03-03T02:39:43;1022.89;;;4.5;36.0271
73306;BME280;61530;51.158;0.880;2023-03-03T02:40:55;1022.88;;;4.5;35.3773
73306;BME280;61530;51.158;0.880;2023-03-03T02:41:53;1022.89;;;4.5625;35.7077
73306;BME280;61530;51.158;0.880;2023-03-03T02:42:55;1022.9;;;4.5;35.422
73306;BME280;61530;51.158;0.880;2023-03-03T02:44:00;1022.96;;;4.5625;34.9932
73306;BME280;61530;51.158;0.880;2023-03-03T02:45:01;1022.9;;;4.5;34.9771
73306;BME280;61530;51.158;0.880;2023-03-03T02:46:05;1022.88;;;4.5625;36.9856
73306;BME280;61530;51.158;0.880;2023-03-03T02:47:09;1022.94;;;4.4375;36.5924
73306;BME280;61530;51.158;0.880;2023-03-03T02:48:13;1022.92;;;4.625;35.6906
73306;BME280;61530;51.158;0.880;2023-03-03T02:49:19;1022.91;;;4.5625;35.4451
73306;BME280;61530;51.158;0.880;2023-03-03T02:50:21;1022.91;;;4.5625;35.2123
73306;BME280;61530;51.158;0.880;2023-03-03T02:51:25;1022.91;;;4.5;35.3674
73306;BME280;61530;51.158;0.880;2023-03-03T02:52:29;1022.94;;;4.5625;36.1382
73306;BME280;61530;51.158;0.880;2023-03-03T02:53:33;1022.9;;;4.625;35.732
73306;BME280;61530;51.158;0.880;2023-03-03T02:54:38;1022.91;;;4.625;35.3894
73306;BME280;61530;51.158;0.880;2023-03-03T02:55:41;1022.9;;;4.625;35.0575
73306;BME280;61530;51.158;0.880;2023-03-03T02:56:46;1022.89;;;4.625;34.6112
73306;BME280;61530;51.158;0.880;2023-03-03T02:57:49;1022.86;;;4.5625;34.083
73306;BME280;61530;51.158;0.880;2023-03-03T02:58:53;1022.89;;;4.625;34.9796
73306;BME280;61530;51.158;0.880;2023-03-03T02:59:57;1022.89;;;4.5625;36.6508
73306;BME280;61530;51.158;0.880;2023-03-03T03:01:02;1022.88;;;4.5625;36.2514
73306;BME280;61530;51.158;0.880;2023-03-03T03:02:05;1022.91;;;4.625;36.1482
73306;BME280;61530;51.158;0.880;2023-03-03T03:03:09;1022.87;;;4.625;35.5703
73306;BME280;61530;51.158;0.880;2023-03-03T03:04:14;1022.92;;;4.5625;36.2683
73306;BME280;61530;51.158;0.880;2023-03-03T03:05:17;1022.92;;;4.5625;35.7433
73306;BME280;61530;51.158;0.880;2023-03-03T03:06:21;1022.91;;;4.625;35.4104
73306;BME280;61530;51.158;0.880;2023-03-03T03:07:25;1022.94;;;4.5625;35.3099
73306;BME280;61530;51.158;0.880;2023-03-03T03:08:29;1022.93;;;4.5625;34.5618
73306;BME280;61530;51.158;0.880;2023-03-03T03:09:34;1022.86;;;4.5625;34.7872
73306;BME280;61530;51.158;0.880;2023-03-03T03:10:37;1022.95;;;4.625;35.6819
73306;BME280;61530;51.158;0.880;2023-03-03T03:11:42;1022.93;;;4.5625;36.28
73306;BME280;61530;51.158;0.880;2023-03-03T03:12:45;1022.96;;;4.5;36.2421
73306;BME280;61530;51.158;0.880;2023-03-03T03:13:49;1023.0;;;4.5625;37.4745
73306;BME280;61530;51.158;0.880;2023-03-03T03:14:53;1023.0;;;4.5625;36.9468
73306;BME280;61530;51.158;0.880;2023-03-03T03:15:57;1023.0;;;4.5625;36.3493
73306;BME280;61530;51.158;0.880;2023-03-03T03:17:01;1023.0;;;4.4375;35.4893
73306;BME280;61530;51.158;0.880;2023-03-03T03:18:06;1023.0;;;4.4375;35.4711
73306;BME280;61530;51.158;0.880;2023-03-03T03:19:09;1023.01;;;4.5625;35.7688
73306;BME280;61530;51.158;0.880;2023-03-03T03:20:13;1023.02;;;4.5625;36.7258
73306;BME280;61530;51.158;0.880;2023-03-03T03:21:17;1022.99;;;4.5625;36.3253
73306;BME280;61530;51.158;0.880;2023-03-03T03:22:21;1023.01;;;4.5;34.6833
73306;BME280;61530;51.158;0.880;2023-03-03T03:23:25;1023.01;;;4.5;34.8682
73306;BME280;61530;51.158;0.880;2023-03-03T03:24:29;1022.98;;;4.625;35.3578
73306;BME280;61530;51.158;0.880;2023-03-03T03:25:33;1023.0;;;4.5625;34.9697
73306;BME280;61530;51.158;0.880;2023-03-03T03:26:37;1022.96;;;4.5;34.491
73306;BME280;61530;51.158;0.880;2023-03-03T03:27:41;1023.0;;;4.5625;35.5058
73306;BME280;61530;51.158;0.880;2023-03-03T03:28:45;1023.02;;;4.5625;34.6966
73306;BME280;61530;51.158;0.880;2023-03-03T03:29:49;1022.99;;;4.625;35.2984
73306;BME280;61530;51.158;0.880;2023-03-03T03:30:53;1022.99;;;4.5625;34.7344
73306;BME280;61530;51.158;0.880;2023-03-03T03:31:57;1023.0;;;4.5625;35.4187
73306;BME280;61530;51.158;0.880;2023-03-03T03:33:02;1023.0;;;4.5625;36.0768
73306;BME280;61530;51.158;0.880;2023-03-03T03:34:05;1023.04;;;4.5625;35.0965
73306;BME280;61530;51.158;0.880;2023-03-03T03:35:09;1023.05;;;4.5625;36.9135
73306;BME280;61530;51.158;0.880;2023-03-03T03:36:13;1023.06;;;4.5;36.1975
73306;BME280;61530;51.158;0.880;2023-03-03T03:37:17;1023.08;;;4.5;36.3966
73306;BME280;61530;51.158;0.880;2023-03-03T03:38:21;1023.11;;;4.5625;36.4409
73306;BME280;61530;51.158;0.880;2023-03-03T03:39:25;1023.12;;;4.625;36.3945
73306;BME280;61530;51.158;0.880;2023-03-03T03:40:29;1023.08;;;4.625;35.6561
73306;BME280;61530;51.158;0.880;2023-03-03T03:41:33;1023.08;;;4.5625;36.692
73306;BME280;61530;51.158;0.880;2023-03-03T03:42:37;1023.08;;;4.5;36.1735
73306;BME280;61530;51.158;0.880;2023-03-03T03:43:42;1023.08;;;4.5625;35.1994
73306;BME280;61530;51.158;0.880;2023-03-03T03:44:45;1023.08;;;4.625;35.4028
73306;BME280;61530;51.158;0.880;2023-03-03T03:45:49;1023.09;;;4.625;36.0999
73306;BME280;61530;51.158;0.880;2023-03-03T03:46:53;1023.07;;;4.5;35.7029
73306;BME280;61530;51.158;0.880;2023-03-03T03:47:57;1023.1;;;4.5;36.3166
73306;BME280;61530;51.158;0.880;2023-03-03T03:49:01;1023.06;;;4.5;35.9626
73306;BME280;61530;51.158;0.880;2023-03-03T03:50:06;1023.11;;;4.5;35.5466
73306;BME280;61530;51.158;0.880;2023-03-03T03:51:10;1023.14;;;4.5;35.4569
73306;BME280;61530;51.158;0.880;2023-03-03T03:52:14;1023.12;;;4.375;36.1151
73306;BME280;61530;51.158;0.880;2023-03-03T03:53:17;1023.09;;;4.375;35.2211
73306;BME280;61530;51.158;0.880;2023-03-03T03:54:21;1023.12;;;4.4375;35.3465
73306;BME280;61530;51.158;0.880;2023-03-03T03:55:25;1023.1;;;4.4375;34.6833
73306;BME280;61530;51.158;0.880;2023-03-03T03:56:29;1023.12;;;4.4375;35.2396
73306;BME280;61530;51.158;0.880;2023-03-03T03:57:33;1023.1;;;4.4375;35.7822
73306;BME280;61530;51.158;0.880;2023-03-03T03:58:40;1023.11;;;4.3125;36.6913
73306;BME280;61530;51.158;0.880;2023-03-03T03:59:41;1023.12;;;4.4375;35.9054
73306;BME280;61530;51.158;0.880;2023-03-03T04:00:46;1023.07;;;4.4375;35.3211
73306;BME280;61530;51.158;0.880;2023-03-03T04:01:49;1023.06;;;4.5;35.804
73306;BME280;61530;51.158;0.880;2023-03-03T04:02:53;1023.07;;;4.5;36.7595
73306;BME280;61530;51.158;0.880;2023-03-03T04:03:57;1023.06;;;4.4375;35.5088
73306;BME280;61530;51.158;0.880;2023-03-03T04:05:03;1023.05;;;4.375;36.6007
73306;BME280;61530;51.158;0.880;2023-03-03T04:06:05;1023.06;;;4.5;35.718
73306;BME280;61530;51.158;0.880;2023-03-03T04:07:09;1023.06;;;4.4375;35.1024
73306;BME280;61530;51.158;0.880;2023-03-03T04:08:13;1023.08;;;4.4375;35.9519
73306;BME280;61530;51.158;0.880;2023-03-03T04:09:17;1023.09;;;4.5;35.6652
73306;BME280;61530;51.158;0.880;2023-03-03T04:10:21;1023.1;;;4.5625;36.4652
73306;BME280;61530;51.158;0.880;2023-03-03T04:11:25;1023.13;;;4.5;36.5481
73306;BME280;61530;51.158;0.880;2023-03-03T04:12:29;1023.14;;;4.625;35.5513
73306;BME280;61530;51.158;0.880;2023-03-03T04:13:34;1023.15;;;4.625;35.6437
73306;BME280;61530;51.158;0.880;2023-03-03T04:14:37;1023.12;;;4.625;36.2986
73306;BME280;61530;51.158;0.880;2023-03-03T04:15:41;1023.16;;;4.5625;36.6739
73306;BME280;61530;51.158;0.880;2023-03-03T04:16:45;1023.15;;;4.625;35.7468
73306;BME280;61530;51.158;0.880;2023-03-03T04:17:49;1023.19;;;4.5625;35.5578
73306;BME280;61530;51.158;0.880;2023-03-03T04:18:53;1023.19;;;4.5625;35.8825
73306;BME280;61530;51.158;0.880;2023-03-03T04:19:57;1023.18;;;4.5625;35.2034
73306;BME280;61530;51.158;0.880;2023-03-03T04:21:01;1023.2;;;4.5625;35.8665
73306;BME280;61530;51.158;0.880;2023-03-03T04:22:05;1023.22;;;4.5;36.2877
73306;BME280;61530;51.158;0.880;2023-03-03T04:23:09;1023.2;;;4.5625;36.0478
73306;BME280;61530;51.158;0.880;2023-03-03T04:24:13;1023.2;;;4.5625;36.1624
73306;BME280;61530;51.158;0.880;2023-03-03T04:25:17;1023.16;;;4.625;37.3511
73306;BME280;61530;51.158;0.880;2023-03-03T04:26:21;1023.19;;;4.5;37.0602
73306;BME280;61530;51.158;0.880;2023-03-03T04:27:25;1023.14;;;4.5625;35.6828
73306;BME280;61530;51.158;0.880;2023-03-03T04:28:29;1023.16;;;4.625;35.5971
73306;BME280;61530;51.158;0.880;2023-03-03T04:29:33;1023.16;;;4.5;35.6901
73306;BME280;61530;51.158;0.880;2023-03-03T04:30:37;1023.17;;;4.5;36.7246
73306;BME280;61530;51.158;0.880;2023-03-03T04:31:41;1023.15;;;4.625;35.78
73306;BME280;61530;51.158;0.880;2023-03-03T04:32:45;1023.12;;;4.5625;35.2766
73306;BME280;61530;51.158;0.880;2023-03-03T04:33:49;1023.15;;;4.6875;36.2033
73306;BME280;61530;51.158;0.880;2023-03-03T04:34:53;1023.17;;;4.5625;36.6678
73306;BME280;61530;51.158;0.880;2023-03-03T04:35:57;1023.16;;;4.5625;37.4413
73306;BME280;61530;51.158;0.880;2023-03-03T04:37:01;1023.12;;;4.625;36.8791
73306;BME280;61530;51.158;0.880;2023-03-03T04:38:05;1023.14;;;4.5625;36.0939
73306;BME280;61530;51.158;0.880;2023-03-03T04:39:09;1023.13;;;4.625;36.0834
73306;BME280;61530;51.158;0.880;2023-03-03T04:40:13;1023.13;;;4.5625;35.7576
73306;BME280;61530;51.158;0.880;2023-03-03T04:41:17;1023.19;;;4.5;36.6799
73306;BME280;61530;51.158;0.880;2023-03-03T04:42:21;1023.14;;;4.5625;36.6525
73306;BME280;61530;51.158;0.880;2023-03-03T04:43:25;1023.18;;;4.5625;36.7318
73306;BME280;61530;51.158;0.880;2023-03-03T04:44:29;1023.16;;;4.5625;35.9228
73306;BME280;61530;51.158;0.880;2023-03-03T04:45:33;1023.18;;;4.5625;36.7428
73306;BME280;61530;51.158;0.880;2023-03-03T04:46:37;1023.18;;;4.5625;36.2695
73306;BME280;61530;51.158;0.880;2023-03-03T04:47:41;1023.16;;;4.5625;35.7
73306;BME280;61530;51.158;0.880;2023-03-03T04:48:45;1023.13;;;4.5;35.5694
73306;BME280;61530;51.158;0.880;2023-03-03T04:49:49;1023.11;;;4.5625;34.8331
73306;BME280;61530;51.158;0.880;2023-03-03T04:50:53;1023.11;;;4.5;34.6441
73306;BME280;61530;51.158;0.880;2023-03-03T04:51:58;1023.15;;;4.625;34.6504
73306;BME280;61530;51.158;0.880;2023-03-03T04:53:01;1023.18;;;4.5;36.6813
73306;BME280;61530;51.158;0.880;2023-03-03T04:54:05;1023.13;;;4.5625;35.0511
73306;BME280;61530;51.158;0.880;2023-03-03T04:55:09;1023.15;;;4.5;35.0648
73306;BME280;61530;51.158;0.880;2023-03-03T04:56:14;1023.14;;;4.5625;35.85
73306;BME280;61530;51.158;0.880;2023-03-03T04:57:17;1023.15;;;4.5625;35.3707
73306;BME280;61530;51.158;0.880;2023-03-03T04:58:21;1023.15;;;4.5625;35.1871
73306;BME280;61530;51.158;0.880;2023-03-03T04:59:25;1023.16;;;4.5625;35.2062
73306;BME280;61530;51.158;0.880;2023-03-03T05:00:30;1023.1;;;4.5;34.5089
73306;BME280;61530;51.158;0.880;2023-03-03T05:01:33;1023.11;;;4.5625;34.751
73306;BME280;61530;51.158;0.880;2023-03-03T05:02:37;1023.12;;;4.5;35.1324
73306;BME280;61530;51.158;0.880;2023-03-03T05:03:41;1023.11;;;4.5625;35.2685
73306;BME280;61530;51.158;0.880;2023-03-03T05:04:45;1023.12;;;4.5;35.3536
73306;BME280;61530;51.158;0.880;2023-03-03T05:05:49;1023.1;;;4.5;35.9577
73306;BME280;61530;51.158;0.880;2023-03-03T05:06:53;1023.11;;;4.4375;34.8577
73306;BME280;61530;51.158;0.880;2023-03-03T05:07:57;1023.07;;;4.5;33.7228
73306;BME280;61530;51.158;0.880;2023-03-03T05:09:02;1023.11;;;4.4375;34.5501
73306;BME280;61530;51.158;0.880;2023-03-03T05:10:06;1023.14;;;4.4375;34.8663
73306;BME280;61530;51.158;0.880;2023-03-03T05:11:10;1023.13;;;4.5;35.7165
73306;BME280;61530;51.158;0.880;2023-03-03T05:12:13;1023.14;;;4.25;35.6298
73306;BME280;61530;51.158;0.880;2023-03-03T05:13:18;1023.15;;;4.4375;35.3868
73306;BME280;61530;51.158;0.880;2023-03-03T05:14:21;1023.15;;;4.375;35.6254
73306;BME280;61530;51.158;0.880;2023-03-03T05:15:25;1023.18;;;4.4375;35.2215
73306;BME280;61530;51.158;0.880;2023-03-03T05:16:29;1023.19;;;4.5;34.9775
73306;BME280;61530;51.158;0.880;2023-03-03T05:17:34;1023.17;;;4.5;35.7984
73306;BME280;61530;51.158;0.880;2023-03-03T05:18:37;1023.19;;;4.375;35.8418
73306;BME280;61530;51.158;0.880;2023-03-03T05:19:41;1023.2;;;4.5625;35.7187
73306;BME280;61530;51.158;0.880;2023-03-03T05:20:45;1023.21;;;4.5;35.4151
73306;BME280;61530;51.158;0.880;2023-03-03T05:21:49;1023.22;;;4.5;34.9664
73306;BME280;61530;51.158;0.880;2023-03-03T05:22:53;1023.23;;;4.5;35.0271
73306;BME280;61530;51.158;0.880;2023-03-03T05:23:57;1023.22;;;4.4375;34.8146
73306;BME280;61530;51.158;0.880;2023-03-03T05:25:01;1023.25;;;4.5;34.4708
73306;BME280;61530;51.158;0.880;2023-03-03T05:26:06;1023.26;;;4.4375;34.584
73306;BME280;61530;51.158;0.880;2023-03-03T05:27:09;1023.24;;;4.4375;35.5576
73306;BME280;61530;51.158;0.880;2023-03-03T05:28:13;1023.24;;;4.375;35.3753
73306;BME280;61530;51.158;0.880;2023-03-03T05:29:17;1023.24;;;4.4375;35.5238
73306;BME280;61530;51.158;0.880;2023-03-03T05:30:21;1023.25;;;4.375;36.2506
73306;BME280;61530;51.158;0.880;2023-03-03T05:31:25;1023.23;;;4.3125;36.3643
73306;BME280;61530;51.158;0.880;2023-03-03T05:32:29;1023.25;;;4.375;35.7025
73306;BME280;61530;51.158;0.880;2023-03-03T05:33:33;1023.23;;;4.4375;35.6693
73306;BME280;61530;51.158;0.880;2023-03-03T05:34:38;1023.25;;;4.4375;36.0227